Time;durP1;ratioP1;P1;durP2;ratioP2;P2;SDS_P1;SDS_P2;PMS_P1;PMS_P2;Temp;Humidity;BMP_temperature;BMP_pressure;BME280_temperature;BME280_humidity;BME280_pressure;Samples;Min_cycle;Max_cycle;Signal;HPM_P1;HPM_P2
2021/11/01 00:01:53;;;;;;;4.13;2.00;;;9.70;99.90;;;9.26;100.00;99833.34;4170065;28;20139;-66
2021/11/01 00:03:54;;;;;;;4.22;1.58;;;9.70;99.90;;;9.32;100.00;99837.94;4169032;28;20519;-66
2021/11/01 00:05:55;;;;;;;3.63;1.10;;;9.70;99.90;;;9.14;100.00;99813.69;4168083;28;20029;-66
2021/11/01 00:07:56;;;;;;;3.33;1.27;;;9.70;99.90;;;9.22;100.00;99819.75;4169894;28;20065;-66
2021/11/01 00:09:57;;;;;;;4.32;1.25;;;9.60;99.90;;;9.19;100.00;99824.50;4170314;28;20033;-66
2021/11/01 00:11:58;;;;;;;4.57;1.00;;;9.60;99.90;;;9.17;100.00;99826.50;4170123;28;20079;-66
2021/11/01 00:13:59;;;;;;;3.03;1.08;;;9.50;99.90;;;9.21;100.00;99820.72;4169907;28;20085;-66
2021/11/01 00:16:00;;;;;;;3.92;1.02;;;9.50;99.90;;;9.13;100.00;99817.28;4170224;28;20041;-66
2021/11/01 00:18:01;;;;;;;7.82;2.20;;;9.50;99.90;;;9.12;100.00;99813.00;4170145;28;20366;-66
2021/11/01 00:20:06;;;;;;;4.72;1.35;;;9.50;99.90;;;9.04;100.00;99805.16;4170057;28;20026;-66
2021/11/01 00:22:06;;;;;;;5.90;1.00;;;9.50;99.90;;;8.98;100.00;99795.31;4169674;28;20038;-66
2021/11/01 00:24:08;;;;;;;4.15;1.60;;;9.40;99.90;;;8.92;100.00;99803.88;4170008;28;20118;-66
2021/11/01 00:26:08;;;;;;;3.28;1.00;;;9.40;99.90;;;9.04;100.00;99799.91;4169725;28;20049;-66
2021/11/01 00:28:11;;;;;;;3.83;1.05;;;9.40;99.90;;;8.89;100.00;99802.41;4169752;28;20087;-66
2021/11/01 00:30:12;;;;;;;3.50;1.33;;;9.40;99.90;;;8.90;100.00;99778.53;4169812;28;20376;-66
2021/11/01 00:32:13;;;;;;;3.35;0.98;;;9.40;99.90;;;8.98;100.00;99795.31;4169749;28;20040;-66
2021/11/01 00:34:14;;;;;;;4.28;1.08;;;9.40;99.90;;;8.87;100.00;99794.66;4169744;28;20408;-66
2021/11/01 00:36:15;;;;;;;3.63;1.35;;;9.40;99.90;;;8.86;100.00;99786.97;4169635;28;20025;-66
2021/11/01 00:38:17;;;;;;;4.20;1.65;;;9.30;99.90;;;8.89;100.00;99797.13;4169276;28;20028;-66
2021/11/01 00:40:17;;;;;;;5.43;1.40;;;9.30;99.90;;;8.85;100.00;99804.53;4169850;28;20021;-66
2021/11/01 00:42:18;;;;;;;2.38;1.10;;;9.30;99.90;;;8.68;100.00;99810.81;4169619;28;20031;-66
2021/11/01 00:44:19;;;;;;;5.82;1.17;;;9.20;99.90;;;8.64;100.00;99813.94;4169492;28;20065;-66
2021/11/01 00:46:20;;;;;;;3.55;1.00;;;9.20;99.90;;;8.64;100.00;99809.50;4169397;28;20052;-66
2021/11/01 00:48:21;;;;;;;3.55;1.00;;;9.10;99.90;;;8.67;100.00;99808.34;4169400;28;20041;-66
2021/11/01 00:50:22;;;;;;;1.98;1.10;;;9.10;99.90;;;8.71;100.00;99807.03;4169482;28;20055;-66
2021/11/01 00:52:28;;;;;;;3.03;1.40;;;9.10;99.90;;;8.59;100.00;99811.81;4169025;28;20554;-66
2021/11/01 00:54:29;;;;;;;3.05;1.45;;;9.00;99.90;;;8.66;100.00;99797.00;4169153;28;20029;-66
2021/11/01 00:56:30;;;;;;;2.00;1.08;;;9.00;99.90;;;8.67;100.00;99798.66;4169422;28;20049;-67
2021/11/01 00:58:33;;;;;;;2.30;1.10;;;9.00;99.90;;;8.63;100.00;99802.59;4169174;28;20447;-66
2021/11/01 01:00:34;;;;;;;4.35;1.17;;;8.90;99.90;;;8.67;100.00;99790.75;4169029;28;20101;-66
2021/11/01 01:02:35;;;;;;;3.10;1.00;;;8.90;99.90;;;8.53;100.00;99799.34;4169064;28;20090;-66
2021/11/01 01:04:36;;;;;;;3.88;1.17;;;8.90;99.90;;;8.31;100.00;99777.16;4169011;28;20116;-66
2021/11/01 01:06:37;;;;;;;6.47;1.13;;;8.90;99.90;;;8.34;100.00;99786.53;4167942;28;20029;-66
2021/11/01 01:08:39;;;;;;;3.58;1.05;;;8.80;99.90;;;8.37;100.00;99785.38;4162390;28;20030;-66
2021/11/01 01:10:40;;;;;;;5.57;1.23;;;8.80;99.90;;;8.40;100.00;99780.59;4168879;28;20025;-67
2021/11/01 01:12:42;;;;;;;3.17;1.10;;;8.80;99.90;;;8.44;100.00;99791.63;4168993;28;20137;-66
2021/11/01 01:14:49;;;;;;;3.47;1.08;;;8.80;99.90;;;8.41;100.00;99784.06;4169079;28;20099;-66
2021/11/01 01:16:51;;;;;;;2.58;1.23;;;8.80;99.90;;;8.22;100.00;99782.56;4169072;28;20025;-66
2021/11/01 01:18:54;;;;;;;4.57;1.05;;;8.80;99.90;;;8.28;100.00;99782.75;4168667;28;20021;-66
2021/11/01 01:20:59;;;;;;;4.00;1.42;;;8.70;99.90;;;8.08;100.00;99780.59;4168998;28;20037;-66
2021/11/01 01:23:00;;;;;;;;;;;8.60;99.90;;;8.19;100.00;99788.13;4168969;28;20033;-66
2021/11/01 01:25:26;;;;;;;2.40;1.05;;;8.60;99.90;;;8.16;100.00;99791.09;4168997;28;19909;-66
2021/11/01 01:27:27;;;;;;;3.35;1.20;;;8.60;99.90;;;8.19;100.00;99796.00;4168894;28;20503;-66
2021/11/01 01:29:28;;;;;;;5.07;2.83;;;8.60;99.90;;;8.14;100.00;99791.25;4168788;28;20056;-66
2021/11/01 01:31:29;;;;;;;3.63;1.92;;;8.60;99.90;;;8.26;100.00;99789.13;4168774;28;20124;-66
2021/11/01 01:33:30;;;;;;;5.55;1.67;;;8.60;99.90;;;8.21;100.00;99794.88;4168811;28;20022;-66
2021/11/01 01:35:34;;;;;;;4.93;1.20;;;8.60;99.90;;;8.19;100.00;99793.38;4168816;28;20042;-66
2021/11/01 01:37:35;;;;;;;3.40;1.30;;;8.50;99.90;;;8.14;100.00;99790.44;4167952;28;20100;-66
2021/11/01 01:39:36;;;;;;;2.92;1.00;;;8.60;99.90;;;8.19;100.00;99796.00;4168833;28;20065;-66
2021/11/01 01:41:41;;;;;;;4.85;1.00;;;8.60;99.90;;;8.10;100.00;99789.13;4168538;28;20450;-66
2021/11/01 01:43:59;;;;;;;1.20;0.90;;;8.60;99.90;;;8.09;100.00;99792.75;4168818;28;20476;-66
2021/11/01 01:46:00;;;;;;;2.45;1.00;;;8.50;99.90;;;8.07;100.00;99789.44;4168651;28;20032;-66
2021/11/01 01:48:01;;;;;;;2.40;1.20;;;8.50;99.90;;;8.13;100.00;99791.41;4168668;28;20029;-66
2021/11/01 01:50:04;;;;;;;2.67;1.05;;;8.50;99.90;;;8.18;100.00;99791.75;4168635;28;20061;-66
2021/11/01 01:52:06;;;;;;;4.82;1.40;;;8.50;99.90;;;8.15;100.00;99792.88;4168263;28;20026;-66
2021/11/01 01:54:07;;;;;;;5.68;1.20;;;8.50;99.90;;;8.20;100.00;99800.28;4168524;28;20026;-66
2021/11/01 01:56:09;;;;;;;4.60;1.30;;;8.50;99.90;;;8.14;100.00;99800.94;4168356;28;20408;-66
2021/11/01 01:58:10;;;;;;;5.57;1.52;;;8.50;99.90;;;8.02;100.00;99784.69;4168657;28;20065;-66
2021/11/01 02:02:29;;;;;;;5.43;1.60;;;8.50;99.90;;;8.22;100.00;99807.03;4168531;28;20072;-67
2021/11/01 02:04:32;;;;;;;4.63;1.08;;;8.50;99.90;;;8.15;100.00;99805.22;4155559;28;20034;-66
2021/11/01 02:06:51;;;;;;;4.28;1.40;;;8.60;99.90;;;8.20;100.00;99797.66;4167359;28;20037;-66
2021/11/01 02:09:22;;;;;;;5.10;1.40;;;8.60;99.90;;;8.19;100.00;99802.09;4164109;28;20108;-66
2021/11/01 02:11:34;;;;;;;7.10;1.55;;;8.60;99.90;;;8.34;100.00;99807.53;4168530;28;20485;-66
2021/11/01 02:13:44;;;;;;;10.43;1.60;;;8.70;99.90;;;8.29;100.00;99799.34;4166469;28;20037;-66
2021/11/01 02:15:52;;;;;;;5.45;1.40;;;8.70;99.90;;;8.21;100.00;99802.75;4165312;28;20026;-66
2021/11/01 02:17:57;;;;;;;8.02;1.52;;;8.60;99.90;;;8.16;100.00;99793.72;4158452;28;20029;-66
2021/11/01 02:20:06;;;;;;;6.78;2.53;;;8.70;99.90;;;8.24;100.00;99791.13;4168395;28;20101;-66
2021/11/01 02:22:13;;;;;;;5.85;1.60;;;8.70;99.90;;;8.37;100.00;99799.34;4167918;28;20038;-66
2021/11/01 02:24:25;;;;;;;5.72;1.50;;;8.70;99.90;;;8.38;100.00;99797.53;4168510;28;20237;-66
2021/11/01 02:26:27;;;;;;;8.35;2.08;;;8.70;99.90;;;8.39;100.00;99792.13;4168372;28;20087;-66
2021/11/01 02:28:38;;;;;;;3.55;1.40;;;8.70;99.90;;;8.32;100.00;99785.88;4167096;28;20385;-67
2021/11/01 02:30:40;;;;;;;5.95;1.60;;;8.70;99.90;;;8.34;100.00;99794.41;4155199;28;20087;-66
2021/11/01 02:32:43;;;;;;;6.47;1.50;;;8.70;99.90;;;8.36;100.00;99804.75;4159852;28;20385;-66
2021/11/01 02:34:45;;;;;;;5.22;1.70;;;8.70;99.90;;;8.38;100.00;99808.88;4168174;28;20037;-66
2021/11/01 02:36:46;;;;;;;5.93;1.70;;;8.80;99.90;;;8.38;100.00;99803.63;4168122;28;20473;-66
2021/11/01 02:38:50;;;;;;;3.97;1.67;;;8.70;99.90;;;8.34;100.00;99797.03;4168142;28;20108;-66
2021/11/01 02:40:53;;;;;;;6.82;1.80;;;8.80;99.90;;;8.40;100.00;99795.56;4168329;28;20029;-66
2021/11/01 02:42:55;;;;;;;13.65;2.88;;;8.80;99.90;;;8.37;100.00;99801.97;4168120;28;20041;-66
2021/11/01 02:45:09;;;;;;;12.05;3.58;;;8.90;99.90;;;8.52;100.00;99800.31;4167987;28;20037;-66
2021/11/01 02:47:10;;;;;;;11.27;2.38;;;8.90;99.90;;;8.53;100.00;99798.50;4168332;28;20060;-66
2021/11/01 02:49:11;;;;;;;8.90;1.90;;;9.00;99.90;;;8.65;100.00;99799.81;4168257;28;20029;-66
2021/11/01 02:51:14;;;;;;;10.50;2.50;;;9.00;99.90;;;8.75;100.00;99798.63;4170686;28;20029;-66
2021/11/01 02:53:14;;;;;;;10.23;3.20;;;9.20;99.90;;;8.88;100.00;99806.84;4171220;28;20124;-66
2021/11/01 02:55:18;;;;;;;12.38;2.10;;;9.30;99.90;;;9.11;100.00;99796.41;4171328;28;20029;-66
2021/11/01 02:57:20;;;;;;;7.47;2.03;;;9.40;99.90;;;9.44;100.00;99799.72;4171220;28;20026;-66
2021/11/01 02:59:21;;;;;;;10.50;2.08;;;9.60;99.90;;;9.31;100.00;99791.56;4171029;28;20025;-66
2021/11/01 03:01:23;;;;;;;6.13;2.17;;;9.70;99.90;;;9.23;100.00;99795.03;4171124;28;20049;-66
2021/11/01 03:03:24;;;;;;;9.93;1.90;;;9.70;99.90;;;9.18;100.00;99786.84;4171238;28;20036;-66
2021/11/01 03:05:29;;;;;;;9.48;1.92;;;9.80;99.90;;;9.26;100.00;99789.44;4171324;28;20025;-66
2021/11/01 03:07:31;;;;;;;9.68;2.00;;;9.70;99.90;;;9.20;100.00;99786.69;4169509;28;20089;-66
2021/11/01 03:09:36;;;;;;;8.00;2.15;;;9.80;99.90;;;9.25;100.00;99808.03;4157973;28;20033;-66
2021/11/01 03:11:37;;;;;;;7.32;1.70;;;9.80;99.90;;;9.29;100.00;99796.16;4161575;28;20090;-66
2021/11/01 03:13:38;;;;;;;5.78;1.85;;;9.80;99.90;;;9.37;100.00;99806.69;4170992;28;20022;-66
2021/11/01 03:15:40;;;;;;;6.32;1.90;;;9.80;99.90;;;9.33;100.00;99819.34;4170988;28;20061;-66
2021/11/01 03:17:46;;;;;;;10.93;1.88;;;9.80;99.90;;;9.40;100.00;99827.41;4169837;28;20022;-66
2021/11/01 03:20:03;;;;;;;10.52;2.47;;;9.90;99.90;;;9.53;100.00;99824.22;4162996;28;20030;-66
2021/11/01 03:22:06;;;;;;;7.90;1.90;;;9.90;99.90;;;9.59;100.00;99815.66;4169292;28;20451;-66
2021/11/01 03:24:10;;;;;;;11.30;3.45;;;9.90;99.90;;;9.47;100.00;99823.06;4169791;28;20025;-66
2021/11/01 03:26:15;;;;;;;10.65;2.20;;;9.90;99.90;;;9.53;100.00;99803.16;4161083;28;20033;-66
2021/11/01 03:28:20;;;;;;;11.38;2.40;;;9.90;99.90;;;9.46;100.00;99805.66;4166136;28;20061;-66
2021/11/01 03:30:22;;;;;;;7.47;2.33;;;9.90;99.90;;;9.30;100.00;99800.44;4169462;28;20100;-66
2021/11/01 03:32:24;;;;;;;7.95;1.85;;;9.80;99.90;;;9.25;100.00;99797.53;4158855;28;20033;-66
2021/11/01 03:34:27;;;;;;;9.88;2.45;;;9.70;99.90;;;9.09;100.00;99792.31;4161910;28;20064;-66
2021/11/01 03:36:28;;;;;;;7.63;1.83;;;9.60;99.90;;;9.06;100.00;99797.91;4169580;28;20523;-66
2021/11/01 03:38:30;;;;;;;5.38;1.75;;;9.60;99.90;;;8.91;100.00;99784.63;4169513;28;20025;-66
2021/11/01 03:40:34;;;;;;;9.23;1.77;;;9.50;99.90;;;8.89;100.00;99792.69;4170621;28;20029;-66
2021/11/01 03:42:35;;;;;;;7.97;1.83;;;9.50;99.90;;;8.85;100.00;99791.38;4169252;28;20030;-66
2021/11/01 03:44:43;;;;;;;6.82;2.33;;;9.40;99.90;;;8.86;100.00;99795.66;4165733;28;20037;-66
2021/11/01 03:47:00;;;;;;;10.43;2.10;;;9.40;99.90;;;8.94;100.00;99794.81;4156045;28;20040;-66
2021/11/01 03:49:05;;;;;;;8.05;2.30;;;9.30;99.90;;;8.90;100.00;99796.97;4170377;28;20036;-66
2021/11/01 03:51:39;;;;;;;5.50;1.88;;;9.30;99.90;;;8.87;100.00;99792.03;4170506;28;20029;-66
2021/11/01 03:53:39;;;;;;;4.60;1.20;;;9.30;99.90;;;8.87;100.00;99793.84;4170068;28;20060;-66
2021/11/01 03:55:41;;;;;;;8.63;2.05;;;9.30;99.90;;;8.86;100.00;99802.72;4170566;28;20053;-66
2021/11/01 03:57:44;;;;;;;7.28;1.85;;;9.20;99.90;;;8.92;100.00;99799.44;4169081;28;20025;-66
2021/11/01 03:59:47;;;;;;;13.63;2.72;;;9.30;99.90;;;8.80;100.00;99791.09;4157990;28;20025;-66
2021/11/01 04:01:49;;;;;;;11.07;2.10;;;9.30;99.90;;;9.01;100.00;99808.13;4169667;28;20103;-66
2021/11/01 04:03:50;;;;;;;12.43;2.08;;;9.40;99.90;;;8.94;100.00;99830.81;4168875;28;20049;-66
2021/11/01 04:05:53;;;;;;;9.32;1.70;;;9.40;99.90;;;9.06;100.00;99842.63;4167506;28;20032;-66
2021/11/01 04:07:55;;;;;;;10.30;3.08;;;9.50;99.90;;;9.15;100.00;99828.47;4170107;28;20029;-66
2021/11/01 04:09:56;;;;;;;11.05;1.98;;;9.60;99.90;;;9.08;100.00;99832.78;4170266;28;20488;-66
2021/11/01 04:11:57;;;;;;;9.63;2.00;;;9.70;99.90;;;9.08;100.00;99838.81;4170191;28;20029;-66
2021/11/01 04:14:07;;;;;;;10.98;1.88;;;9.80;99.90;;;9.07;100.00;99834.59;4169957;28;20036;-66
2021/11/01 04:16:16;;;;;;;6.88;1.90;;;9.80;99.90;;;9.24;100.00;99837.97;4169901;28;20113;-66
2021/11/01 04:18:25;;;;;;;8.02;1.92;;;9.80;99.90;;;9.22;100.00;99837.34;4169894;28;20029;-66
2021/11/01 04:22:30;;;;;;;7.03;1.77;;;9.70;99.90;;;9.08;100.00;99827.50;4169869;28;20125;-66
2021/11/01 04:24:31;;;;;;;4.03;2.17;;;9.70;99.90;;;9.12;100.00;99834.06;4170140;28;20428;-66
2021/11/01 04:26:32;;;;;;;6.95;1.90;;;9.60;99.90;;;9.08;100.00;99822.25;4169771;28;20124;-66
2021/11/01 04:28:34;;;;;;;8.48;2.47;;;9.60;99.90;;;8.90;100.00;99810.09;4168444;28;20124;-66
2021/11/01 04:30:39;;;;;;;7.72;1.88;;;9.50;99.90;;;9.05;100.00;99833.91;4157569;28;20040;-66
2021/11/01 04:32:42;;;;;;;5.50;2.10;;;9.50;99.90;;;9.13;100.00;99836.53;4169788;28;20061;-66
2021/11/01 04:34:49;;;;;;;12.80;2.17;;;9.50;99.90;;;9.08;100.00;99828.31;4169754;28;20050;-66
2021/11/01 04:36:52;;;;;;;7.22;2.50;;;9.50;99.90;;;9.14;100.00;99826.84;4169529;28;20037;-67
2021/11/01 04:54:30;;;;;;;9.32;2.10;;;9.50;99.90;;;8.98;100.00;99824.25;4169297;28;20048;-66
2021/11/01 04:56:31;;;;;;;6.85;1.50;;;9.50;99.90;;;9.00;100.00;99830.13;4165377;28;20018;-66
2021/11/01 04:58:34;;;;;;;7.80;2.00;;;9.50;99.90;;;8.99;100.00;99828.53;4160291;28;20029;-66
2021/11/01 05:00:35;;;;;;;7.43;1.75;;;9.40;99.90;;;8.94;100.00;99813.22;4169233;28;20026;-66
2021/11/01 05:02:38;;;;;;;6.63;1.75;;;9.50;99.90;;;9.04;100.00;99824.41;4169104;28;20022;-66
2021/11/01 05:04:41;;;;;;;10.20;2.50;;;9.40;99.90;;;8.89;100.00;99829.53;4169575;28;20052;-67
2021/11/01 05:06:50;;;;;;;9.07;1.65;;;9.40;99.90;;;8.96;100.00;99852.53;4169356;28;20025;-66
2021/11/01 05:09:17;;;;;;;7.38;1.33;;;9.40;99.90;;;8.93;100.00;99856.28;4169069;28;20041;-66
2021/11/01 05:11:28;;;;;;;7.88;2.00;;;9.30;99.90;;;8.98;100.00;99843.47;4169327;28;20053;-66
2021/11/01 05:13:32;;;;;;;8.52;1.80;;;9.30;99.90;;;8.94;100.00;99841.34;4168445;28;20061;-66
2021/11/01 05:15:45;;;;;;;8.07;1.80;;;9.30;99.90;;;8.94;100.00;99842.16;4169184;28;20033;-66
2021/11/01 05:19:59;;;;;;;4.43;1.58;;;9.30;99.90;;;8.88;100.00;99842.81;4169243;28;20037;-66
2021/11/01 05:22:27;;;;;;;8.20;2.55;;;9.30;99.90;;;8.86;100.00;99853.53;4168717;28;20120;-66
2021/11/01 05:24:41;;;;;;;5.80;2.10;;;9.30;99.90;;;8.79;100.00;99852.53;4169013;28;20051;-66
2021/11/01 05:28:54;;;;;;;6.97;1.60;;;9.20;99.90;;;8.76;100.00;99847.59;4169005;28;20129;-66
2021/11/01 05:35:07;;;;;;;16.80;2.08;;;9.20;99.90;;;8.78;100.00;99843.00;4168998;28;20099;-66
2021/11/01 05:37:09;;;;;;;8.52;2.13;;;9.20;99.90;;;8.90;100.00;99846.94;4168655;28;20030;-66
2021/11/01 05:39:10;;;;;;;10.05;2.75;;;9.20;99.90;;;8.78;100.00;99852.72;4169041;28;20431;-66
2021/11/01 05:41:11;;;;;;;9.38;2.38;;;9.20;99.90;;;8.86;100.00;99850.91;4168763;28;20064;-66
2021/11/01 05:43:13;;;;;;;6.10;1.85;;;9.20;99.90;;;8.84;100.00;99842.34;4168615;28;20036;-66
2021/11/01 05:45:14;;;;;;;8.23;1.60;;;9.20;99.90;;;8.85;100.00;99849.25;4168798;28;20029;-66
2021/11/01 05:47:15;;;;;;;9.15;2.72;;;9.20;99.90;;;8.94;100.00;99841.34;4168684;28;20033;-66
2021/11/01 05:49:19;;;;;;;9.77;1.70;;;9.20;99.90;;;8.86;100.00;99837.75;4168848;28;20026;-66
2021/11/01 05:51:22;;;;;;;9.35;2.53;;;9.20;99.90;;;8.69;100.00;99830.84;4168552;28;20037;-66
2021/11/01 05:53:27;;;;;;;6.57;1.65;;;9.20;99.90;;;8.64;100.00;99830.53;4168651;28;20033;-66
2021/11/01 06:00:19;;;;;;;5.68;1.70;;;9.00;99.90;;;8.66;100.00;99823.28;4168518;28;20558;-66
2021/11/01 06:04:56;;;;;;;4.32;1.33;;;9.00;99.90;;;8.63;100.00;99821.00;4168636;28;20082;-67
2021/11/01 06:13:32;;;;;;;8.95;2.03;;;9.00;99.90;;;8.61;100.00;99828.22;4168514;28;20499;-66
2021/11/01 06:15:33;;;;;;;7.25;2.35;;;8.90;99.90;;;8.51;100.00;99830.19;4168366;28;20040;-67
2021/11/01 06:17:34;;;;;;;4.72;1.30;;;8.90;99.90;;;8.59;100.00;99838.09;4168508;28;20546;-66
2021/11/01 06:19:35;;;;;;;4.47;1.67;;;8.90;99.90;;;8.49;100.00;99820.84;4168495;28;20052;-67
2021/11/01 06:21:36;;;;;;;3.60;1.65;;;8.90;99.90;;;8.49;100.00;99832.19;4168310;28;20026;-67
2021/11/01 06:23:39;;;;;;;5.85;1.77;;;8.80;99.90;;;8.43;100.00;99827.59;4168200;28;20480;-67
2021/11/01 06:25:40;;;;;;;6.43;1.70;;;8.80;99.90;;;8.38;100.00;99823.81;4171635;28;20061;-66
2021/11/01 06:27:41;;;;;;;7.50;2.63;;;8.80;99.90;;;8.34;100.00;99823.31;4171831;28;20024;-66
2021/11/01 06:29:58;;;;;;;6.78;2.17;;;8.80;99.90;;;8.17;100.00;99811.13;4171527;28;20030;-66
2021/11/01 06:32:45;;;;;;;5.47;2.10;;;8.70;99.90;;;8.09;100.00;99819.00;4171574;28;20094;-66
2021/11/01 06:50:46;;;;;;;3.72;1.70;;;8.40;99.90;;;8.15;100.00;99826.25;4171571;28;20515;-66
2021/11/01 06:57:13;;;;;;;4.32;1.60;;;8.50;99.90;;;8.09;100.00;99834.78;4171286;28;20042;-66
2021/11/01 07:14:07;;;;;;;4.32;1.40;;;8.50;99.90;;;8.14;100.00;99832.47;4171104;28;20056;-66
2021/11/01 07:15:38;;;;;;;6.90;1.60;;;8.70;99.90;;;8.23;100.00;99828.88;4171273;28;20087;-66
2021/11/01 07:17:47;;;;;;;3.90;1.38;;;8.80;99.90;;;8.20;100.00;99822.13;4171045;28;20025;-66
2021/11/01 07:20:11;;;;;;;8.55;1.88;;;8.80;99.90;;;8.46;100.00;99844.81;4170998;28;20033;-67
2021/11/01 08:20:49;;;;;;;9.48;1.75;;;10.30;99.90;;;9.69;100.00;99858.38;4169785;28;20056;-66
2021/11/01 08:49:53;;;;;;;4.00;1.30;;;10.60;99.90;;;9.77;100.00;99845.97;4140742;28;20488;-66
2021/11/01 09:01:40;;;;;;;7.53;1.90;;;10.70;99.90;;;10.01;100.00;99855.56;4169099;28;20108;-66
2021/11/01 09:04:03;;;;;;;6.35;1.67;;;10.70;99.90;;;9.88;100.00;99847.41;4169311;28;20087;-66
2021/11/01 09:09:44;;;;;;;6.82;1.92;;;10.60;99.90;;;9.93;100.00;99853.81;4169013;28;20083;-66
2021/11/01 09:19:56;;;;;;;7.82;1.73;;;10.40;99.90;;;9.68;100.00;99856.72;4168854;28;20083;-66
2021/11/01 09:26:40;;;;;;;6.22;2.08;;;10.40;99.90;;;9.92;100.00;99852.16;4168977;28;20036;-66
2021/11/01 09:28:52;;;;;;;6.32;1.85;;;10.40;99.90;;;10.01;100.00;99859.00;4168506;28;20037;-66
2021/11/01 09:42:17;;;;;;;7.88;2.25;;;10.60;99.90;;;10.13;100.00;99874.41;4168696;28;20067;-66
2021/11/01 09:44:24;;;;;;;7.28;2.00;;;10.80;99.90;;;10.19;100.00;99868.47;4168626;28;20025;-66
2021/11/01 09:46:28;;;;;;;8.38;2.58;;;10.80;99.90;;;10.25;100.00;99886.22;4168621;28;20045;-66
2021/11/01 09:48:29;;;;;;;;;;;10.90;99.90;;;10.28;100.00;99870.91;4168950;28;20025;-66
2021/11/01 09:50:30;;;;;;;10.85;2.30;;;11.00;99.90;;;10.38;100.00;99878.56;4168457;28;20262;-66
2021/11/01 09:52:33;;;;;;;7.40;1.98;;;11.10;99.90;;;10.48;100.00;99893.16;4168046;28;20037;-66
2021/11/01 09:54:37;;;;;;;6.95;1.88;;;11.20;99.90;;;10.60;100.00;99890.94;4168465;28;20026;-66
2021/11/01 09:56:46;;;;;;;8.23;1.80;;;11.20;99.90;;;10.77;100.00;99896.91;4168544;28;20503;-66
2021/11/01 10:01:15;;;;;;;6.00;1.25;;;11.40;99.90;;;10.83;100.00;99906.75;4168184;28;20044;-66
2021/11/01 10:03:16;;;;;;;7.00;1.80;;;11.50;99.90;;;10.81;100.00;99898.19;4168299;28;20025;-67
2021/11/01 10:05:26;;;;;;;7.40;1.52;;;11.60;99.90;;;10.86;100.00;99909.03;4168254;28;20036;-66
2021/11/01 10:07:32;;;;;;;5.18;1.15;;;11.60;99.90;;;10.82;100.00;99900.63;4168056;28;20081;-66
2021/11/01 10:09:33;;;;;;;3.80;1.17;;;11.60;99.90;;;10.82;100.00;99903.28;4168374;28;20029;-66
2021/11/01 10:11:39;;;;;;;6.10;1.65;;;11.60;99.90;;;10.89;100.00;99906.84;4168202;28;20036;-66
2021/11/01 10:13:40;;;;;;;8.70;1.40;;;11.70;99.90;;;10.99;100.00;99914.53;4168101;28;20029;-66
2021/11/01 10:18:08;;;;;;;5.07;1.23;;;11.80;99.90;;;10.99;100.00;99917.97;4168286;28;20099;-66
2021/11/01 10:20:18;;;;;;;4.00;2.13;;;11.70;99.90;;;10.97;99.76;99919.16;4168274;28;20108;-66
2021/11/01 10:22:27;;;;;;;5.30;1.95;;;11.80;99.90;;;11.10;97.63;99925.47;4166003;28;20038;-66
2021/11/01 10:24:38;;;;;;;8.43;1.50;;;11.80;99.90;;;11.13;100.00;99929.56;4158622;28;20029;-66
2021/11/01 10:26:46;;;;;;;4.60;1.30;;;11.90;99.90;;;11.28;99.12;99930.41;4168137;28;20116;-66
2021/11/01 10:28:52;;;;;;;2.42;1.08;;;12.00;99.90;;;11.37;99.55;99920.59;4168076;28;20033;-66
2021/11/01 10:31:21;;;;;;;5.97;1.00;;;12.10;99.90;;;11.37;100.00;99928.50;4168396;28;20410;-66
2021/11/01 10:33:22;;;;;;;3.03;1.00;;;12.10;99.90;;;11.32;96.74;99909.75;4166734;28;20044;-66
2021/11/01 10:35:33;;;;;;;2.95;1.10;;;12.20;99.90;;;11.42;95.12;99924.31;4167787;28;20033;-66
2021/11/01 10:37:36;;;;;;;5.20;1.13;;;12.20;99.90;;;11.45;95.94;99913.41;4167945;28;20096;-66
2021/11/01 10:39:37;;;;;;;6.70;1.08;;;12.30;99.90;;;11.52;95.38;99929.34;4167966;28;20030;-66
2021/11/01 10:44:25;;;;;;;2.08;1.00;;;12.40;99.90;;;11.61;94.40;99936.16;4168199;28;20040;-66
2021/11/01 11:12:46;;;;;;;5.05;1.17;;;12.80;99.90;;;12.06;90.45;99957.13;4168715;28;20040;-66
2021/11/01 11:14:51;;;;;;;6.68;1.15;;;12.90;99.90;;;11.98;87.77;99962.50;4171111;28;20049;-66
2021/11/01 11:21:33;;;;;;;4.03;1.23;;;13.00;99.90;;;12.37;86.61;99961.34;4171046;28;20029;-66
2021/11/01 11:37:44;;;;;;;4.80;1.25;;;13.30;99.90;;;12.31;86.28;99960.25;4170783;28;20087;-66
2021/11/01 11:48:41;;;;;;;5.32;1.10;;;13.20;99.90;;;12.35;85.22;99963.34;4170604;28;20094;-67
2021/11/01 11:50:43;;;;;;;5.82;1.20;;;13.20;99.90;;;12.44;88.55;99960.41;4170458;28;20057;-67
2021/11/01 11:52:45;;;;;;;4.05;1.17;;;13.20;99.90;;;12.19;86.59;99941.41;4170245;28;20037;-66
2021/11/01 11:55:04;;;;;;;4.00;0.90;;;13.20;99.90;;;12.37;85.11;99946.28;4170211;28;20030;-66
2021/11/01 11:57:19;;;;;;;3.90;0.90;;;13.30;99.90;;;12.39;86.88;99957.53;4170484;28;20053;-66
2021/11/01 11:59:30;;;;;;;4.60;1.23;;;13.40;99.90;;;12.41;88.85;99954.69;4170249;28;20029;-67
2021/11/01 12:01:37;;;;;;;2.25;1.10;;;13.30;99.90;;;12.33;89.02;99960.91;4167744;28;20049;-66
2021/11/01 12:03:39;;;;;;;2.17;1.02;;;13.30;99.90;;;12.18;89.35;99952.19;4165343;28;20481;-67
2021/11/01 12:05:50;;;;;;;7.38;1.33;;;13.20;99.90;;;12.24;90.61;99953.28;4169933;28;20029;-67
2021/11/01 12:08:28;;;;;;;5.43;1.13;;;13.20;99.90;;;12.32;91.49;99963.72;4169996;28;20519;-67
2021/11/01 12:17:06;;;;;;;3.53;1.90;;;13.20;99.90;;;12.52;86.28;99930.38;4170223;28;20076;-66
2021/11/01 12:19:15;;;;;;;4.18;1.50;;;13.40;99.90;;;12.67;85.83;99926.66;4170024;28;20033;-67
2021/11/01 12:21:16;;;;;;;3.25;1.25;;;13.50;99.90;;;12.63;86.44;99935.19;4169782;28;20025;-66
2021/11/01 12:23:17;;;;;;;5.32;1.52;;;13.50;99.90;;;12.74;86.19;99924.09;4169437;28;20052;-66
2021/11/01 12:25:22;;;;;;;5.05;1.38;;;13.60;99.90;;;12.90;85.25;99921.19;4169704;28;20075;-66
2021/11/01 12:27:23;;;;;;;2.35;1.35;;;13.70;99.90;;;12.95;85.67;99921.44;4169510;28;20025;-67
2021/11/01 12:29:24;;;;;;;7.22;1.30;;;13.80;99.90;;;13.08;85.35;99928.69;4169450;28;20401;-66
2021/11/01 12:31:28;;;;;;;5.75;1.60;;;13.90;99.90;;;13.22;84.69;99920.66;4169401;28;20026;-66
2021/11/01 12:33:32;;;;;;;4.70;1.65;;;14.00;99.90;;;13.27;83.16;99920.88;4169429;28;20052;-66
2021/11/01 12:35:35;;;;;;;3.40;1.38;;;14.10;99.90;;;13.15;81.91;99917.13;4169645;28;20030;-66
2021/11/01 12:37:49;;;;;;;10.88;2.30;;;14.10;99.90;;;13.06;84.23;99926.19;4169064;28;20029;-66
2021/11/01 12:40:04;;;;;;;6.85;1.80;;;14.10;99.90;;;13.12;86.35;99920.16;4169352;28;20555;-66
2021/11/01 12:56:59;;;;;;;4.28;1.50;;;14.60;99.90;;;13.70;81.18;99912.78;4169613;28;20071;-66
2021/11/01 12:58:44;;;;;;;4.40;1.20;;;14.80;99.90;;;13.59;79.62;99908.06;4165962;28;20067;-67
2021/11/01 13:00:45;;;;;;;5.20;2.05;;;14.70;99.90;;;13.51;79.61;99900.25;4164949;28;20072;-66
2021/11/01 13:02:47;;;;;;;8.02;2.00;;;14.70;99.90;;;13.21;79.64;99892.53;4168938;28;20053;-67
2021/11/01 13:04:49;;;;;;;5.50;1.70;;;14.60;99.90;;;13.28;82.29;99898.69;4169072;28;20029;-67
2021/11/01 13:09:31;;;;;;;6.00;2.17;;;14.40;99.90;;;13.27;80.68;99894.41;4157728;28;20469;-66
2021/11/01 13:12:01;;;;;;;7.53;1.85;;;14.40;99.90;;;13.36;80.57;99888.94;4168968;28;20104;-66
2021/11/01 13:18:43;;;;;;;7.38;2.08;;;14.30;99.90;;;13.46;81.60;99884.13;4169010;28;20095;-67
2021/11/01 13:20:56;;;;;;;8.63;2.20;;;14.30;99.90;;;13.63;81.17;99890.72;4168735;28;20056;-66
2021/11/01 13:23:01;;;;;;;9.68;1.92;;;14.50;99.90;;;13.59;81.89;99894.81;4168486;28;20025;-66
2021/11/01 13:28:02;;;;;;;6.93;2.08;;;14.50;99.90;;;13.40;81.38;99895.50;4168635;28;20026;-66
2021/11/01 13:39:30;;;;;;;7.47;2.38;;;14.20;99.90;;;13.15;84.53;99888.00;4150444;28;20520;-67
2021/11/01 13:41:31;;;;;;;10.27;2.38;;;14.10;99.90;;;13.04;85.07;99883.22;4152173;28;20709;-66
2021/11/01 13:43:34;;;;;;;7.13;2.42;;;14.00;99.90;;;12.93;86.62;99877.63;4168729;28;20409;-67
2021/11/01 13:45:35;;;;;;;10.20;3.25;;;13.90;99.90;;;12.96;86.48;99882.53;4168666;28;20034;-67
2021/11/01 13:47:48;;;;;;;8.55;2.25;;;13.80;99.90;;;13.04;85.37;99872.63;4168518;28;20060;-66
2021/11/01 13:49:49;;;;;;;8.07;2.00;;;13.80;99.90;;;13.07;86.51;99874.06;4168321;28;20094;-66
2021/11/01 13:51:51;;;;;;;7.50;1.60;;;13.80;99.90;;;12.96;84.94;99864.81;4168313;28;20026;-66